OIYY 
Shahid Sadooghi Airport
Yazd, Iran 
ICAOIATAStatus
OIYYAZDOperational
LatitudeLongitude
31° 54' 17" N54° 16' 35" E
31.90490054.276501
Local Time (DST+5)UTC (GMT+4)
04-25-2014 12:08 pm04-25-2014 07:38
Sunrise-SunsetLocalUTC
Begin Civil Twilight05:45 am01:15
Sunrise06:11 am01:41
Sunset07:30 pm15:00
End Civil Twilight07:55 pm15:25

Current Weather

METARObservedFlight Conditions

OIYY 250700Z 28006KT CAVOK 25/M03 Q1021

Fri, Apr 25, 2014 @ 07:00 UTC(Z)

(38 Minutes ago)

VFR

(Visual Flight Rules)

WindVisibilityCloudsConditions
280° at 6 knots (11 kph)
10 km or more
  • Clear skies
  • No significant weather
TemperaturesReadingsPrecipitation
Current Temp25°C (77°F)
Dewpoint-3°C (27°F)
Humidity15%
Altimeter30.15"Hg
Sea Level Pressure1021mb
Field Elevation4055.12'
None Recorded

Forecast Weather

TAF

TAF OIYY 250510Z 2506/15 22003MPS CAVOK

FromTo
Fri, Apr 25, 2014 @ 06:00 UTC(Z) Fri, Apr 25, 2014 @ 15:00 UTC(Z)
WindVisibilityCloudsConditions
220° at 6 knots (11 kph)
10 km or more
  • No significant weather

Previous 24 hour Weather Graphs

  Loading...

CheckWX.com is intended as a tool to help pilots better visualize weather data.   It is not intended as a substitute for an official weather briefing obtained from a Flight Service Station.
CheckWX.com does not meet the FAA requirements for an official pre-flight weather briefing.   Therefore, it's important that pilots still call and obtain an official FSS pre-flight weather briefing.